sensor_id;sensor_type;location;lat;lon;timestamp;temperature;humidity
29345;DHT22;16339;48.748;2.222;2023-10-13T00:02:06;21.30;95.60
29345;DHT22;16339;48.748;2.222;2023-10-13T00:04:34;21.30;95.60
29345;DHT22;16339;48.748;2.222;2023-10-13T00:07:04;21.30;95.60
29345;DHT22;16339;48.748;2.222;2023-10-13T00:09:35;21.30;95.50
29345;DHT22;16339;48.748;2.222;2023-10-13T00:12:08;21.30;95.50
29345;DHT22;16339;48.748;2.222;2023-10-13T00:14:39;21.30;95.40
29345;DHT22;16339;48.748;2.222;2023-10-13T00:17:11;21.30;95.40
29345;DHT22;16339;48.748;2.222;2023-10-13T00:23:01;21.30;95.40
29345;DHT22;16339;48.748;2.222;2023-10-13T00:25:31;21.30;95.40
29345;DHT22;16339;48.748;2.222;2023-10-13T00:28:11;21.30;95.30
29345;DHT22;16339;48.748;2.222;2023-10-13T00:30:48;21.20;95.40
29345;DHT22;16339;48.748;2.222;2023-10-13T00:33:18;21.30;95.40
29345;DHT22;16339;48.748;2.222;2023-10-13T00:35:50;21.20;95.30
29345;DHT22;16339;48.748;2.222;2023-10-13T00:38:22;21.20;95.40
29345;DHT22;16339;48.748;2.222;2023-10-13T00:40:53;21.20;95.40
29345;DHT22;16339;48.748;2.222;2023-10-13T00:43:31;21.20;95.50
29345;DHT22;16339;48.748;2.222;2023-10-13T00:46:05;21.20;95.60
29345;DHT22;16339;48.748;2.222;2023-10-13T00:48:35;21.20;95.70
29345;DHT22;16339;48.748;2.222;2023-10-13T00:51:09;21.20;95.80
29345;DHT22;16339;48.748;2.222;2023-10-13T00:53:44;21.20;95.80
29345;DHT22;16339;48.748;2.222;2023-10-13T00:56:14;21.20;96.00
29345;DHT22;16339;48.748;2.222;2023-10-13T00:58:50;21.20;96.00
29345;DHT22;16339;48.748;2.222;2023-10-13T01:01:19;21.20;96.00
29345;DHT22;16339;48.748;2.222;2023-10-13T01:03:48;21.20;96.00
29345;DHT22;16339;48.748;2.222;2023-10-13T01:06:21;21.20;95.90
29345;DHT22;16339;48.748;2.222;2023-10-13T01:08:57;21.30;95.90
29345;DHT22;16339;48.748;2.222;2023-10-13T01:11:36;21.20;96.00
29345;DHT22;16339;48.748;2.222;2023-10-13T01:14:05;21.20;96.00
29345;DHT22;16339;48.748;2.222;2023-10-13T01:16:34;21.20;96.00
29345;DHT22;16339;48.748;2.222;2023-10-13T01:19:01;21.20;95.90
29345;DHT22;16339;48.748;2.222;2023-10-13T01:21:32;21.20;95.80
29345;DHT22;16339;48.748;2.222;2023-10-13T01:24:01;21.20;95.80
29345;DHT22;16339;48.748;2.222;2023-10-13T01:26:34;21.20;95.80
29345;DHT22;16339;48.748;2.222;2023-10-13T01:29:07;21.20;96.00
29345;DHT22;16339;48.748;2.222;2023-10-13T01:31:41;21.20;96.00
29345;DHT22;16339;48.748;2.222;2023-10-13T01:34:12;21.30;96.10
29345;DHT22;16339;48.748;2.222;2023-10-13T01:36:45;21.30;96.40
29345;DHT22;16339;48.748;2.222;2023-10-13T01:39:14;21.30;96.60
29345;DHT22;16339;48.748;2.222;2023-10-13T01:41:43;21.30;97.10
29345;DHT22;16339;48.748;2.222;2023-10-13T01:44:09;21.40;96.80
29345;DHT22;16339;48.748;2.222;2023-10-13T01:46:40;21.40;96.80
29345;DHT22;16339;48.748;2.222;2023-10-13T01:49:08;21.40;96.70
29345;DHT22;16339;48.748;2.222;2023-10-13T01:51:37;21.40;96.70
29345;DHT22;16339;48.748;2.222;2023-10-13T01:54:05;21.40;96.70
29345;DHT22;16339;48.748;2.222;2023-10-13T01:56:40;21.40;96.80
29345;DHT22;16339;48.748;2.222;2023-10-13T01:59:10;21.40;96.80
29345;DHT22;16339;48.748;2.222;2023-10-13T02:01:39;21.40;96.80
29345;DHT22;16339;48.748;2.222;2023-10-13T02:04:08;21.50;96.80
29345;DHT22;16339;48.748;2.222;2023-10-13T02:06:36;21.40;96.80
29345;DHT22;16339;48.748;2.222;2023-10-13T02:09:06;21.40;96.90
29345;DHT22;16339;48.748;2.222;2023-10-13T02:11:43;21.50;96.90
29345;DHT22;16339;48.748;2.222;2023-10-13T02:14:19;21.50;97.00
29345;DHT22;16339;48.748;2.222;2023-10-13T02:16:49;21.50;96.90
29345;DHT22;16339;48.748;2.222;2023-10-13T02:19:22;21.50;96.80
29345;DHT22;16339;48.748;2.222;2023-10-13T02:21:52;21.50;96.80
29345;DHT22;16339;48.748;2.222;2023-10-13T02:24:29;21.50;96.90
29345;DHT22;16339;48.748;2.222;2023-10-13T02:26:59;21.50;96.80
29345;DHT22;16339;48.748;2.222;2023-10-13T02:29:30;21.50;96.90
29345;DHT22;16339;48.748;2.222;2023-10-13T02:31:57;21.50;96.90
29345;DHT22;16339;48.748;2.222;2023-10-13T02:34:30;21.50;96.90
29345;DHT22;16339;48.748;2.222;2023-10-13T02:36:57;21.50;96.90
29345;DHT22;16339;48.748;2.222;2023-10-13T02:39:26;21.50;96.90
29345;DHT22;16339;48.748;2.222;2023-10-13T02:41:53;21.50;96.90
29345;DHT22;16339;48.748;2.222;2023-10-13T02:44:24;21.50;96.80
29345;DHT22;16339;48.748;2.222;2023-10-13T02:46:53;21.50;96.80
29345;DHT22;16339;48.748;2.222;2023-10-13T02:49:21;21.50;96.80
29345;DHT22;16339;48.748;2.222;2023-10-13T02:51:47;21.40;96.70
29345;DHT22;16339;48.748;2.222;2023-10-13T02:54:18;21.40;96.80
29345;DHT22;16339;48.748;2.222;2023-10-13T02:56:45;21.40;96.80
29345;DHT22;16339;48.748;2.222;2023-10-13T02:59:25;21.30;96.80
29345;DHT22;16339;48.748;2.222;2023-10-13T03:02:00;21.30;96.80
29345;DHT22;16339;48.748;2.222;2023-10-13T03:04:33;21.30;96.80
29345;DHT22;16339;48.748;2.222;2023-10-13T03:06:59;21.30;96.80
29345;DHT22;16339;48.748;2.222;2023-10-13T03:09:28;21.30;97.00
29345;DHT22;16339;48.748;2.222;2023-10-13T03:11:54;21.20;96.90
29345;DHT22;16339;48.748;2.222;2023-10-13T03:14:26;21.20;96.90
29345;DHT22;16339;48.748;2.222;2023-10-13T03:16:54;21.20;96.90
29345;DHT22;16339;48.748;2.222;2023-10-13T03:19:27;21.20;97.20
29345;DHT22;16339;48.748;2.222;2023-10-13T03:21:58;21.10;96.80
29345;DHT22;16339;48.748;2.222;2023-10-13T03:24:34;21.10;96.80
29345;DHT22;16339;48.748;2.222;2023-10-13T03:27:01;21.10;96.80
29345;DHT22;16339;48.748;2.222;2023-10-13T03:29:39;21.10;96.80
29345;DHT22;16339;48.748;2.222;2023-10-13T03:32:09;21.10;96.80
29345;DHT22;16339;48.748;2.222;2023-10-13T03:34:41;21.10;96.80
29345;DHT22;16339;48.748;2.222;2023-10-13T03:37:20;21.10;96.80
29345;DHT22;16339;48.748;2.222;2023-10-13T03:40:03;21.10;96.80
29345;DHT22;16339;48.748;2.222;2023-10-13T03:42:56;21.10;96.90
29345;DHT22;16339;48.748;2.222;2023-10-13T03:45:32;21.10;96.90
29345;DHT22;16339;48.748;2.222;2023-10-13T03:48:05;21.10;96.90
29345;DHT22;16339;48.748;2.222;2023-10-13T03:50:41;21.10;96.80
29345;DHT22;16339;48.748;2.222;2023-10-13T03:53:23;21.10;96.90
29345;DHT22;16339;48.748;2.222;2023-10-13T03:55:52;21.10;96.80
29345;DHT22;16339;48.748;2.222;2023-10-13T03:58:33;21.10;96.80
29345;DHT22;16339;48.748;2.222;2023-10-13T04:01:05;21.10;96.80
29345;DHT22;16339;48.748;2.222;2023-10-13T04:03:35;21.10;96.80
29345;DHT22;16339;48.748;2.222;2023-10-13T04:06:22;21.10;96.80
29345;DHT22;16339;48.748;2.222;2023-10-13T04:09:13;21.10;96.80
29345;DHT22;16339;48.748;2.222;2023-10-13T04:11:55;21.10;96.80
29345;DHT22;16339;48.748;2.222;2023-10-13T04:14:37;21.00;96.80
29345;DHT22;16339;48.748;2.222;2023-10-13T04:17:46;21.10;96.80
29345;DHT22;16339;48.748;2.222;2023-10-13T04:20:16;21.10;96.80
29345;DHT22;16339;48.748;2.222;2023-10-13T04:23:00;21.00;96.60
29345;DHT22;16339;48.748;2.222;2023-10-13T04:25:44;21.00;96.60
29345;DHT22;16339;48.748;2.222;2023-10-13T04:28:25;21.00;96.60
29345;DHT22;16339;48.748;2.222;2023-10-13T04:31:16;21.00;96.60
29345;DHT22;16339;48.748;2.222;2023-10-13T04:34:15;21.00;96.50
29345;DHT22;16339;48.748;2.222;2023-10-13T04:36:53;20.90;96.40
29345;DHT22;16339;48.748;2.222;2023-10-13T04:39:36;20.90;96.30
29345;DHT22;16339;48.748;2.222;2023-10-13T04:42:07;20.90;96.20
29345;DHT22;16339;48.748;2.222;2023-10-13T04:44:52;21.00;96.20
29345;DHT22;16339;48.748;2.222;2023-10-13T04:47:26;21.00;96.10
29345;DHT22;16339;48.748;2.222;2023-10-13T04:49:57;21.00;95.90
29345;DHT22;16339;48.748;2.222;2023-10-13T04:52:27;21.00;95.70
29345;DHT22;16339;48.748;2.222;2023-10-13T04:55:08;21.00;95.50
29345;DHT22;16339;48.748;2.222;2023-10-13T04:58:02;21.10;95.30
29345;DHT22;16339;48.748;2.222;2023-10-13T05:00:53;21.10;95.10
29345;DHT22;16339;48.748;2.222;2023-10-13T05:03:37;21.10;94.90
29345;DHT22;16339;48.748;2.222;2023-10-13T05:06:21;21.10;94.70
29345;DHT22;16339;48.748;2.222;2023-10-13T05:09:02;21.10;94.60
29345;DHT22;16339;48.748;2.222;2023-10-13T05:11:44;21.10;94.50
29345;DHT22;16339;48.748;2.222;2023-10-13T05:14:25;21.10;94.40
29345;DHT22;16339;48.748;2.222;2023-10-13T05:17:06;21.10;94.40
29345;DHT22;16339;48.748;2.222;2023-10-13T05:19:47;21.10;94.30
29345;DHT22;16339;48.748;2.222;2023-10-13T05:22:42;21.20;94.40
29345;DHT22;16339;48.748;2.222;2023-10-13T05:25:24;21.20;94.30
29345;DHT22;16339;48.748;2.222;2023-10-13T05:28:05;21.20;94.30
29345;DHT22;16339;48.748;2.222;2023-10-13T05:30:46;21.20;94.30
29345;DHT22;16339;48.748;2.222;2023-10-13T05:33:27;21.20;94.30
29345;DHT22;16339;48.748;2.222;2023-10-13T05:36:10;21.20;94.20
29345;DHT22;16339;48.748;2.222;2023-10-13T05:38:54;21.20;94.10
29345;DHT22;16339;48.748;2.222;2023-10-13T05:41:35;21.20;94.10
29345;DHT22;16339;48.748;2.222;2023-10-13T05:44:16;21.20;94.00
29345;DHT22;16339;48.748;2.222;2023-10-13T05:46:57;21.20;93.90
29345;DHT22;16339;48.748;2.222;2023-10-13T05:49:40;21.20;93.90
29345;DHT22;16339;48.748;2.222;2023-10-13T05:52:16;21.20;93.70
29345;DHT22;16339;48.748;2.222;2023-10-13T05:54:48;21.20;93.70
29345;DHT22;16339;48.748;2.222;2023-10-13T05:57:29;21.20;93.80
29345;DHT22;16339;48.748;2.222;2023-10-13T06:00:11;21.30;93.90
29345;DHT22;16339;48.748;2.222;2023-10-13T06:02:52;21.20;94.00
29345;DHT22;16339;48.748;2.222;2023-10-13T06:05:33;21.20;94.30
29345;DHT22;16339;48.748;2.222;2023-10-13T06:08:15;21.20;94.40
29345;DHT22;16339;48.748;2.222;2023-10-13T06:11:03;21.20;94.40
29345;DHT22;16339;48.748;2.222;2023-10-13T06:13:45;21.10;94.40
29345;DHT22;16339;48.748;2.222;2023-10-13T06:16:26;21.00;94.10
29345;DHT22;16339;48.748;2.222;2023-10-13T06:19:07;21.00;94.10
29345;DHT22;16339;48.748;2.222;2023-10-13T06:21:48;21.00;94.10
29345;DHT22;16339;48.748;2.222;2023-10-13T06:24:32;21.00;94.00
29345;DHT22;16339;48.748;2.222;2023-10-13T06:27:23;21.00;93.90
29345;DHT22;16339;48.748;2.222;2023-10-13T06:30:05;21.00;94.00
29345;DHT22;16339;48.748;2.222;2023-10-13T06:32:38;21.00;93.90
29345;DHT22;16339;48.748;2.222;2023-10-13T06:35:10;21.00;93.90
29345;DHT22;16339;48.748;2.222;2023-10-13T06:37:44;21.00;93.50
29345;DHT22;16339;48.748;2.222;2023-10-13T06:40:25;21.00;93.50
29345;DHT22;16339;48.748;2.222;2023-10-13T06:43:05;21.00;93.60
29345;DHT22;16339;48.748;2.222;2023-10-13T06:48:56;21.00;93.60
29345;DHT22;16339;48.748;2.222;2023-10-13T06:54:50;21.10;93.50
29345;DHT22;16339;48.748;2.222;2023-10-13T06:57:21;21.10;93.40
29345;DHT22;16339;48.748;2.222;2023-10-13T07:00:16;21.10;93.00
29345;DHT22;16339;48.748;2.222;2023-10-13T07:03:21;21.10;92.90
29345;DHT22;16339;48.748;2.222;2023-10-13T07:06:11;21.10;92.70
29345;DHT22;16339;48.748;2.222;2023-10-13T07:24:43;21.20;91.60
29345;DHT22;16339;48.748;2.222;2023-10-13T07:27:16;21.30;91.50
29345;DHT22;16339;48.748;2.222;2023-10-13T07:33:07;21.40;91.20
29345;DHT22;16339;48.748;2.222;2023-10-13T07:38:59;21.50;90.70
29345;DHT22;16339;48.748;2.222;2023-10-13T08:24:52;22.00;88.30
29345;DHT22;16339;48.748;2.222;2023-10-13T08:27:33;22.00;87.90
29345;DHT22;16339;48.748;2.222;2023-10-13T08:30:37;21.90;87.20
29345;DHT22;16339;48.748;2.222;2023-10-13T08:33:27;21.90;87.60
29345;DHT22;16339;48.748;2.222;2023-10-13T09:22:31;22.40;86.60
29345;DHT22;16339;48.748;2.222;2023-10-13T09:37:34;22.20;86.00
29345;DHT22;16339;48.748;2.222;2023-10-13T09:40:04;22.20;86.60
29345;DHT22;16339;48.748;2.222;2023-10-13T09:42:51;22.30;86.30
29345;DHT22;16339;48.748;2.222;2023-10-13T09:48:49;22.50;85.80
29345;DHT22;16339;48.748;2.222;2023-10-13T09:57:21;22.50;85.00
29345;DHT22;16339;48.748;2.222;2023-10-13T10:03:02;22.60;85.00
29345;DHT22;16339;48.748;2.222;2023-10-13T10:05:41;22.60;84.30
29345;DHT22;16339;48.748;2.222;2023-10-13T10:08:07;22.60;84.30
29345;DHT22;16339;48.748;2.222;2023-10-13T10:10:50;22.50;85.10
29345;DHT22;16339;48.748;2.222;2023-10-13T10:14:05;22.50;85.00
29345;DHT22;16339;48.748;2.222;2023-10-13T10:16:39;22.50;85.00
29345;DHT22;16339;48.748;2.222;2023-10-13T10:19:12;22.70;84.90
29345;DHT22;16339;48.748;2.222;2023-10-13T10:21:49;22.80;84.70
29345;DHT22;16339;48.748;2.222;2023-10-13T10:27:40;22.90;83.80
29345;DHT22;16339;48.748;2.222;2023-10-13T11:30:27;23.90;80.70
29345;DHT22;16339;48.748;2.222;2023-10-13T11:33:08;23.90;81.20
29345;DHT22;16339;48.748;2.222;2023-10-13T11:35:37;24.10;80.30
29345;DHT22;16339;48.748;2.222;2023-10-13T11:38:22;24.20;80.00
29345;DHT22;16339;48.748;2.222;2023-10-13T11:51:48;24.60;78.40
29345;DHT22;16339;48.748;2.222;2023-10-13T12:13:54;24.30;79.50
29345;DHT22;16339;48.748;2.222;2023-10-13T12:16:23;24.40;79.20
29345;DHT22;16339;48.748;2.222;2023-10-13T12:19:00;24.40;79.00
29345;DHT22;16339;48.748;2.222;2023-10-13T12:21:30;24.50;79.40
29345;DHT22;16339;48.748;2.222;2023-10-13T12:24:03;24.50;79.30
29345;DHT22;16339;48.748;2.222;2023-10-13T12:26:37;24.60;79.40
29345;DHT22;16339;48.748;2.222;2023-10-13T12:49:31;24.90;78.80
29345;DHT22;16339;48.748;2.222;2023-10-13T12:58:14;25.50;76.20
29345;DHT22;16339;48.748;2.222;2023-10-13T13:00:48;25.40;76.60
29345;DHT22;16339;48.748;2.222;2023-10-13T13:03:39;25.40;76.60
29345;DHT22;16339;48.748;2.222;2023-10-13T13:06:16;25.60;76.40
29345;DHT22;16339;48.748;2.222;2023-10-13T13:23:18;25.60;75.40
29345;DHT22;16339;48.748;2.222;2023-10-13T13:25:56;25.60;76.30
29345;DHT22;16339;48.748;2.222;2023-10-13T13:31:39;25.60;76.40
29345;DHT22;16339;48.748;2.222;2023-10-13T13:37:38;25.30;76.60
29345;DHT22;16339;48.748;2.222;2023-10-13T13:40:16;25.30;76.40
29345;DHT22;16339;48.748;2.222;2023-10-13T13:42:48;25.30;76.60
29345;DHT22;16339;48.748;2.222;2023-10-13T13:45:18;25.30;76.50
29345;DHT22;16339;48.748;2.222;2023-10-13T13:47:53;25.10;77.20
29345;DHT22;16339;48.748;2.222;2023-10-13T13:50:23;25.20;77.00
29345;DHT22;16339;48.748;2.222;2023-10-13T13:52:55;25.20;76.90
29345;DHT22;16339;48.748;2.222;2023-10-13T13:55:33;25.10;76.50
29345;DHT22;16339;48.748;2.222;2023-10-13T13:58:41;24.80;77.50
29345;DHT22;16339;48.748;2.222;2023-10-13T14:04:44;24.70;77.70
29345;DHT22;16339;48.748;2.222;2023-10-13T14:10:22;24.70;78.50
29345;DHT22;16339;48.748;2.222;2023-10-13T14:22:19;24.60;78.60
29345;DHT22;16339;48.748;2.222;2023-10-13T14:24:51;24.60;78.50
29345;DHT22;16339;48.748;2.222;2023-10-13T14:27:21;24.60;78.30
29345;DHT22;16339;48.748;2.222;2023-10-13T14:29:51;24.50;78.70
29345;DHT22;16339;48.748;2.222;2023-10-13T14:32:23;24.50;78.50
29345;DHT22;16339;48.748;2.222;2023-10-13T14:34:53;24.50;78.60
29345;DHT22;16339;48.748;2.222;2023-10-13T14:37:25;24.40;78.90
29345;DHT22;16339;48.748;2.222;2023-10-13T14:39:58;24.50;78.90
29345;DHT22;16339;48.748;2.222;2023-10-13T14:42:28;24.20;79.10
29345;DHT22;16339;48.748;2.222;2023-10-13T14:45:01;24.40;79.40
29345;DHT22;16339;48.748;2.222;2023-10-13T14:47:39;24.50;79.10
29345;DHT22;16339;48.748;2.222;2023-10-13T14:50:09;24.40;79.10
29345;DHT22;16339;48.748;2.222;2023-10-13T14:52:48;24.30;79.20
29345;DHT22;16339;48.748;2.222;2023-10-13T14:55:24;24.30;79.80
29345;DHT22;16339;48.748;2.222;2023-10-13T15:04:31;24.30;80.00
29345;DHT22;16339;48.748;2.222;2023-10-13T15:07:01;24.40;79.60
29345;DHT22;16339;48.748;2.222;2023-10-13T15:09:34;24.50;79.40
29345;DHT22;16339;48.748;2.222;2023-10-13T15:12:08;24.60;79.20
29345;DHT22;16339;48.748;2.222;2023-10-13T15:14:37;24.50;79.40
29345;DHT22;16339;48.748;2.222;2023-10-13T15:17:59;24.60;79.80
29345;DHT22;16339;48.748;2.222;2023-10-13T15:20:39;24.30;79.80
29345;DHT22;16339;48.748;2.222;2023-10-13T15:23:26;24.50;79.80
29345;DHT22;16339;48.748;2.222;2023-10-13T15:26:09;24.50;80.10
29345;DHT22;16339;48.748;2.222;2023-10-13T15:28:40;24.50;79.70
29345;DHT22;16339;48.748;2.222;2023-10-13T15:31:15;24.60;79.70
29345;DHT22;16339;48.748;2.222;2023-10-13T15:34:04;24.60;80.10
29345;DHT22;16339;48.748;2.222;2023-10-13T15:36:39;24.40;80.50
29345;DHT22;16339;48.748;2.222;2023-10-13T15:39:08;24.50;80.40
29345;DHT22;16339;48.748;2.222;2023-10-13T15:41:43;24.40;80.40
29345;DHT22;16339;48.748;2.222;2023-10-13T15:44:12;24.50;80.40
29345;DHT22;16339;48.748;2.222;2023-10-13T15:46:42;24.50;80.50
29345;DHT22;16339;48.748;2.222;2023-10-13T15:49:15;24.60;80.20
29345;DHT22;16339;48.748;2.222;2023-10-13T15:51:44;24.70;80.10
29345;DHT22;16339;48.748;2.222;2023-10-13T15:54:13;24.60;80.40
29345;DHT22;16339;48.748;2.222;2023-10-13T15:56:55;24.30;80.70
29345;DHT22;16339;48.748;2.222;2023-10-13T16:13:37;24.20;81.20
29345;DHT22;16339;48.748;2.222;2023-10-13T16:16:06;24.20;80.90
29345;DHT22;16339;48.748;2.222;2023-10-13T16:18:54;24.30;80.90
29345;DHT22;16339;48.748;2.222;2023-10-13T16:24:49;24.10;81.20
29345;DHT22;16339;48.748;2.222;2023-10-13T19:32:41;22.70;86.50
29345;DHT22;16339;48.748;2.222;2023-10-13T19:35:46;22.80;86.90
29345;DHT22;16339;48.748;2.222;2023-10-13T19:39:00;22.80;86.80
